TimeMST,TemperatureF,Dew PointF,Humidity,Sea Level PressureIn,VisibilityMPH,Wind Direction,Wind SpeedMPH,Gust SpeedMPH,PrecipitationIn,Events,Conditions,WindDirDegrees,DateUTC
12:53 AM,12.9,6.1,74,30.12,10.0,SSW,8.1,-,N/A,,Scattered Clouds,210,2011-12-04 07:53:00
1:53 AM,14.0,7.0,74,30.12,10.0,SW,4.6,-,N/A,,Scattered Clouds,220,2011-12-04 08:53:00
2:53 AM,10.0,3.9,76,30.14,10.0,SW,5.8,-,N/A,,Scattered Clouds,220,2011-12-04 09:53:00
3:53 AM,12.9,6.1,74,30.13,10.0,SW,8.1,-,N/A,,Scattered Clouds,230,2011-12-04 10:53:00
4:53 AM,14.0,7.0,74,30.15,10.0,SW,9.2,-,N/A,,Scattered Clouds,220,2011-12-04 11:53:00
5:53 AM,16.0,7.0,68,30.15,10.0,SW,11.5,-,N/A,,Mostly Cloudy,220,2011-12-04 12:53:00
6:53 AM,15.1,7.0,70,30.18,10.0,WSW,5.8,-,N/A,,Mostly Cloudy,240,2011-12-04 13:53:00
7:53 AM,15.1,8.1,74,30.22,10.0,SW,4.6,-,N/A,,Mostly Cloudy,220,2011-12-04 14:53:00
8:53 AM,18.0,9.0,68,30.23,10.0,WSW,3.5,-,N/A,,Mostly Cloudy,240,2011-12-04 15:53:00
9:53 AM,19.9,10.9,68,30.27,10.0,WSW,3.5,-,N/A,,Mostly Cloudy,250,2011-12-04 16:53:00
10:53 AM,21.0,10.9,65,30.25,10.0,WSW,5.8,-,N/A,,Mostly Cloudy,250,2011-12-04 17:53:00
11:53 AM,25.0,10.9,55,30.22,10.0,Calm,Calm,-,N/A,,Mostly Cloudy,0,2011-12-04 18:53:00
12:53 PM,26.1,9.0,49,30.21,10.0,Calm,Calm,-,N/A,,Mostly Cloudy,0,2011-12-04 19:53:00
1:53 PM,23.0,10.0,58,30.21,10.0,NNE,5.8,-,N/A,,Mostly Cloudy,30,2011-12-04 20:53:00
2:53 PM,19.9,9.0,62,30.27,10.0,NE,8.1,-,N/A,,Mostly Cloudy,50,2011-12-04 21:53:00
3:53 PM,19.0,9.0,65,30.28,10.0,NNE,10.4,-,N/A,,Mostly Cloudy,30,2011-12-04 22:53:00
4:53 PM,17.1,10.0,74,30.32,10.0,NE,8.1,-,N/A,,Mostly Cloudy,50,2011-12-04 23:53:00
5:22 PM,19.4,10.4,68,30.16,10.0,NE,16.1,-,N/A,,Overcast,40,2011-12-05 00:22:00
5:53 PM,18.0,10.0,71,30.34,10.0,NE,11.5,-,N/A,,Overcast,40,2011-12-05 00:53:00
6:53 PM,17.6,10.4,73,30.22,10.0,NE,8.1,-,N/A,,Overcast,40,2011-12-05 01:53:00
7:26 PM,17.6,10.4,73,30.24,3.0,North,6.9,-,0.00,Snow,Light Snow,10,2011-12-05 02:26:00
7:32 PM,17.6,10.4,73,30.25,2.5,North,8.1,-,0.00,Snow,Light Snow,360,2011-12-05 02:32:00
7:35 PM,17.6,10.4,73,30.25,1.5,North,10.4,-,0.00,Snow,Light Snow,360,2011-12-05 02:35:00
7:47 PM,17.6,12.2,79,30.26,0.8,North,12.7,-,0.01,Snow,Light Snow,360,2011-12-05 02:47:00
7:53 PM,17.1,12.9,84,30.43,0.5,North,13.8,-,0.01,Fog-Snow,Snow,360,2011-12-05 02:53:00
8:04 PM,17.6,12.2,79,30.27,1.0,North,17.3,-,0.00,Snow,Light Snow,10,2011-12-05 03:04:00
8:53 PM,15.1,10.0,80,30.46,1.0,North,17.3,-,0.01,Snow,Light Snow,360,2011-12-05 03:53:00
9:40 PM,12.2,6.8,79,30.32,0.8,North,20.7,-,0.00,Snow,Light Snow,360,2011-12-05 04:40:00
9:53 PM,12.0,7.0,80,30.49,1.0,North,21.9,-,0.00,Snow,Light Snow,360,2011-12-05 04:53:00
10:05 PM,12.2,6.8,79,30.32,1.0,North,20.7,-,0.00,Snow,Light Snow,10,2011-12-05 05:05:00
10:20 PM,12.2,5.0,73,30.32,1.0,North,19.6,-,0.00,,Overcast,10,2011-12-05 05:20:00
10:24 PM,12.2,5.0,73,30.33,9.0,North,18.4,-,0.00,Snow,Light Snow,10,2011-12-05 05:24:00
10:26 PM,12.2,5.0,73,30.33,9.0,North,17.3,-,0.00,Snow,Light Snow,10,2011-12-05 05:26:00
10:53 PM,10.4,3.2,73,30.34,10.0,North,20.7,-,N/A,,Overcast,10,2011-12-05 05:53:00
11:53 PM,10.0,1.9,70,30.51,10.0,NNE,11.5,-,N/A,,Overcast,20,2011-12-05 06:53:00